Time;durP1;ratioP1;P1;durP2;ratioP2;P2;SDS_P1;SDS_P2;PMS_P1;PMS_P2;Temp;Humidity;BMP_temperature;BMP_pressure;BME280_temperature;BME280_humidity;BME280_pressure;Samples;Min_cycle;Max_cycle;Signal;HPM_P1;HPM_P2
2024/01/15 00:02:24;;;;;;;2.63;2.33;;;-0.80;99.90;;;;;;5114041;28;20507;-69
2024/01/15 00:04:52;;;;;;;1.07;0.97;;;-0.80;99.90;;;;;;5114141;28;21012;-68
2024/01/15 00:07:21;;;;;;;5.00;4.47;;;-0.70;99.90;;;;;;5113830;28;20506;-69
2024/01/15 00:09:49;;;;;;;7.57;4.27;;;-0.70;99.90;;;;;;5121166;27;20784;-69
2024/01/15 00:12:17;;;;;;;3.13;1.33;;;-0.80;99.90;;;;;;5113283;28;20438;-69
2024/01/15 00:14:45;;;;;;;15.40;1.50;;;-0.80;99.90;;;;;;5130237;27;20984;-69
2024/01/15 00:17:13;;;;;;;0.80;0.80;;;-0.90;99.90;;;;;;5133161;27;20561;-69
2024/01/15 00:19:41;;;;;;;5.23;1.50;;;-0.90;99.90;;;;;;5127098;27;20461;-69
2024/01/15 00:22:09;;;;;;;5.10;3.40;;;-0.90;99.90;;;;;;5130740;27;20815;-69
2024/01/15 00:24:38;;;;;;;0.60;0.20;;;-0.80;99.90;;;;;;5132800;27;20926;-69
2024/01/15 00:27:06;;;;;;;0.60;0.50;;;-0.80;99.90;;;;;;5121600;27;20479;-69
2024/01/15 00:29:34;;;;;;;5.00;2.50;;;-0.90;99.90;;;;;;5131683;27;20474;-69
2024/01/15 00:32:02;;;;;;;0.90;0.90;;;-0.80;99.90;;;;;;5132823;27;20480;-68
2024/01/15 00:34:30;;;;;;;0.53;0.40;;;-0.80;99.90;;;;;;5132323;27;20460;-68
2024/01/15 00:36:58;;;;;;;0.70;0.40;;;-0.80;99.90;;;;;;5123720;27;20486;-69
2024/01/15 00:39:26;;;;;;;1.17;0.70;;;-0.80;99.90;;;;;;5131295;27;20450;-68
2024/01/15 00:41:55;;;;;;;0.70;0.63;;;-0.80;99.90;;;;;;5121889;27;20466;-68
2024/01/15 00:44:23;;;;;;;0.50;0.10;;;-0.80;99.90;;;;;;5128077;27;20439;-69
2024/01/15 00:46:51;;;;;;;2.40;1.17;;;-0.70;99.90;;;;;;5111584;28;20475;-68
2024/01/15 00:49:18;;;;;;;2.20;0.83;;;-0.70;99.90;;;;;;5123845;28;20470;-68
2024/01/15 00:51:46;;;;;;;1.43;1.07;;;-0.60;99.90;;;;;;5132377;27;20495;-67
2024/01/15 00:54:15;;;;;;;1.30;1.20;;;-0.60;99.90;;;;;;5132213;28;20445;-68
2024/01/15 00:56:42;;;;;;;1.13;1.03;;;-0.60;99.90;;;;;;5124371;27;21328;-67
2024/01/15 00:59:14;;;;;;;3.27;2.97;;;-0.50;99.90;;;;;;5129775;28;20492;-68
2024/01/15 01:01:43;;;;;;;0.50;0.10;;;-0.50;99.90;;;;;;5131868;27;20960;-68
2024/01/15 01:04:11;;;;;;;5.27;2.00;;;-0.50;99.90;;;;;;5132150;27;20442;-68
2024/01/15 01:06:39;;;;;;;1.37;0.80;;;-0.50;99.90;;;;;;5132151;27;20458;-70
2024/01/15 01:09:07;;;;;;;2.80;1.63;;;-0.50;99.90;;;;;;5135618;27;20491;-70
2024/01/15 01:11:35;;;;;;;0.50;0.10;;;-0.50;99.90;;;;;;5134842;27;20438;-69
2024/01/15 01:14:03;;;;;;;1.03;0.93;;;-0.50;99.90;;;;;;5125781;27;20450;-69
2024/01/15 01:16:38;;;;;;;5.53;2.53;;;-0.50;99.90;;;;;;5127037;27;20541;-69
2024/01/15 01:19:06;;;;;;;0.50;0.20;;;-0.50;99.90;;;;;;5135508;27;20888;-69
2024/01/15 01:21:35;;;;;;;10.13;2.30;;;-0.50;99.90;;;;;;5135609;27;20526;-69
2024/01/15 01:24:03;;;;;;;3.63;3.30;;;-0.50;99.90;;;;;;5135211;27;20435;-69
2024/01/15 01:26:31;;;;;;;3.37;2.73;;;-0.50;99.90;;;;;;5135914;27;20458;-69
2024/01/15 01:28:59;;;;;;;0.80;0.57;;;-0.40;99.90;;;;;;5134380;27;20530;-69
2024/01/15 01:31:27;;;;;;;0.50;0.10;;;-0.50;99.90;;;;;;5135650;27;20442;-69
2024/01/15 01:33:57;;;;;;;4.73;0.97;;;-0.50;99.90;;;;;;5133492;27;20438;-69
2024/01/15 01:36:24;;;;;;;5.00;2.60;;;-0.50;99.90;;;;;;5135450;27;20870;-69
2024/01/15 01:38:52;;;;;;;1.27;1.17;;;-0.60;99.90;;;;;;5135279;27;20434;-69
2024/01/15 01:41:20;;;;;;;0.87;0.50;;;-0.60;99.90;;;;;;5126922;27;20534;-69
2024/01/15 01:43:48;;;;;;;0.60;0.57;;;-0.60;99.90;;;;;;5126998;27;20487;-70
2024/01/15 01:46:16;;;;;;;0.50;0.10;;;-0.60;99.90;;;;;;5126161;27;20545;-68
2024/01/15 01:48:44;;;;;;;0.60;0.60;;;-0.60;99.90;;;;;;5128172;27;20478;-69
2024/01/15 01:51:15;;;;;;;2.13;0.50;;;-0.60;99.90;;;;;;5133856;27;20922;-68
2024/01/15 01:53:46;;;;;;;0.50;0.10;;;-0.60;99.90;;;;;;5135243;27;20442;-68
2024/01/15 01:56:14;;;;;;;1.50;0.77;;;-0.50;99.90;;;;;;5135293;27;20539;-68
2024/01/15 01:58:42;;;;;;;3.30;3.07;;;-0.50;99.90;;;;;;5135203;27;20435;-68
2024/01/15 02:01:11;;;;;;;0.50;0.10;;;-0.50;99.90;;;;;;5135197;27;20547;-68
2024/01/15 02:03:40;;;;;;;1.17;0.73;;;-0.50;99.90;;;;;;5129198;27;20444;-68
2024/01/15 02:06:09;;;;;;;3.90;2.83;;;-0.50;99.90;;;;;;5135558;27;20449;-68
2024/01/15 02:08:39;;;;;;;0.50;0.10;;;-0.40;99.90;;;;;;5134442;27;20531;-68
2024/01/15 02:11:07;;;;;;;0.93;0.93;;;-0.50;99.90;;;;;;5134752;27;20486;-68
2024/01/15 02:13:34;;;;;;;0.50;0.30;;;-0.50;99.90;;;;;;5129312;27;20970;-68
2024/01/15 02:16:02;;;;;;;0.50;0.10;;;-0.40;99.90;;;;;;5114206;28;20471;-68
2024/01/15 02:18:39;;;;;;;3.80;2.20;;;-0.40;99.90;;;;;;5126351;27;20478;-68
2024/01/15 02:21:07;;;;;;;0.50;0.10;;;-0.40;99.90;;;;;;5132588;27;20441;-68
2024/01/15 02:23:37;;;;;;;0.50;0.10;;;-0.30;99.90;;;;;;5134741;27;20442;-68
2024/01/15 02:26:06;;;;;;;1.87;1.30;;;-0.30;99.90;;;;;;5132369;27;20474;-68
2024/01/15 02:28:34;;;;;;;0.90;0.47;;;-0.30;99.90;;;;;;5129847;27;20509;-68
2024/01/15 02:31:02;;;;;;;0.50;0.10;;;-0.40;99.90;;;;;;5134506;27;20927;-68
2024/01/15 02:33:30;;;;;;;3.23;2.30;;;-0.40;99.90;;;;;;5134524;27;20481;-68
2024/01/15 02:35:59;;;;;;;0.60;0.33;;;-0.40;99.90;;;;;;5134130;27;20534;-68
2024/01/15 02:38:26;;;;;;;4.73;2.53;;;-0.40;99.90;;;;;;5134298;27;20795;-68
2024/01/15 02:40:56;;;;;;;2.60;1.27;;;-0.30;99.90;;;;;;5134208;27;21059;-68
2024/01/15 02:43:24;;;;;;;10.57;2.03;;;-0.40;99.90;;;;;;5129813;27;20450;-67
2024/01/15 02:45:51;;;;;;;2.17;1.97;;;-0.40;99.90;;;;;;5133896;27;20467;-69
2024/01/15 02:48:20;;;;;;;3.13;1.07;;;-0.50;99.90;;;;;;5133456;27;20474;-69
2024/01/15 02:50:48;;;;;;;4.90;3.50;;;-0.60;99.90;;;;;;5123636;27;20489;-69
2024/01/15 02:53:15;;;;;;;4.83;4.63;;;-0.60;99.90;;;;;;5133868;27;20462;-69
2024/01/15 02:55:43;;;;;;;3.33;3.03;;;-0.60;99.90;;;;;;5154277;22;20518;-72
2024/01/15 02:58:12;;;;;;;0.50;0.10;;;-0.50;99.90;;;;;;5093998;28;20545;-73
2024/01/15 03:00:40;;;;;;;0.50;0.10;;;-0.50;99.90;;;;;;5111094;28;20504;-72
2024/01/15 03:03:09;;;;;;;6.83;1.97;;;-0.50;99.90;;;;;;5111743;28;20463;-72
2024/01/15 03:05:37;;;;;;;1.93;1.80;;;-0.50;99.90;;;;;;5092456;28;20446;-72
2024/01/15 03:08:05;;;;;;;6.83;4.07;;;-0.50;99.90;;;;;;5081355;28;20475;-73
2024/01/15 03:10:33;;;;;;;2.40;1.90;;;-0.50;99.90;;;;;;5092210;28;20603;-72
2024/01/15 03:13:01;;;;;;;0.50;0.10;;;-0.50;99.90;;;;;;5091119;28;20441;-72
2024/01/15 03:15:31;;;;;;;8.93;4.10;;;-0.60;99.90;;;;;;5091624;28;20571;-73
2024/01/15 03:17:59;;;;;;;3.00;1.57;;;-0.50;99.90;;;;;;5075735;28;20556;-71
2024/01/15 03:20:26;;;;;;;0.50;0.10;;;-0.50;99.90;;;;;;5072262;28;20883;-72
2024/01/15 03:22:54;;;;;;;0.50;0.10;;;-0.50;99.90;;;;;;5072109;28;20484;-72
2024/01/15 03:25:22;;;;;;;2.27;2.07;;;-0.50;99.90;;;;;;5076545;28;20465;-72
2024/01/15 03:27:50;;;;;;;0.50;0.10;;;-0.40;99.90;;;;;;5091351;28;20460;-73
2024/01/15 03:30:18;;;;;;;12.20;2.37;;;-0.40;99.90;;;;;;5080355;28;20445;-73
2024/01/15 03:32:49;;;;;;;1.53;0.40;;;-0.30;99.90;;;;;;5088679;28;20471;-73
2024/01/15 03:35:17;;;;;;;0.50;0.20;;;-0.30;99.90;;;;;;5081311;28;20445;-72
2024/01/15 03:37:45;;;;;;;7.40;4.40;;;-0.20;99.90;;;;;;5071685;28;20504;-72
2024/01/15 03:40:14;;;;;;;4.60;3.13;;;-0.30;99.90;;;;;;5071389;28;20453;-72
2024/01/15 03:42:43;;;;;;;1.07;0.93;;;-0.50;99.90;;;;;;5073022;28;20475;-72
2024/01/15 03:45:11;;;;;;;0.50;0.30;;;-0.40;99.90;;;;;;5081772;28;20440;-73
2024/01/15 03:47:39;;;;;;;1.53;1.43;;;-0.40;99.90;;;;;;5081634;28;20990;-72
2024/01/15 03:50:10;;;;;;;0.60;0.37;;;1.30;99.90;;;;;;5096194;28;20476;-72
2024/01/15 03:52:37;;;;;;;5.87;5.30;;;-0.50;99.90;;;;;;5078852;28;20473;-72
2024/01/15 03:55:06;;;;;;;0.50;0.10;;;-0.50;99.90;;;;;;5088255;28;20505;-72
2024/01/15 03:57:34;;;;;;;0.50;0.10;;;-0.50;99.90;;;;;;5085412;28;20526;-72
2024/01/15 04:00:03;;;;;;;2.83;2.73;;;-0.40;99.90;;;;;;5081720;28;20624;-73
2024/01/15 04:02:31;;;;;;;4.13;2.23;;;-0.40;99.90;;;;;;5092311;28;20444;-72
2024/01/15 04:04:59;;;;;;;1.00;1.00;;;-0.40;99.90;;;;;;5090143;28;20917;-72
2024/01/15 04:07:28;;;;;;;6.10;3.40;;;-0.50;99.90;;;;;;5076092;28;20457;-72
2024/01/15 04:09:56;;;;;;;18.33;4.57;;;-0.50;99.90;;;;;;5074546;28;20484;-72
2024/01/15 04:12:24;;;;;;;0.50;0.20;;;-0.50;99.90;;;;;;5101680;28;20531;-72
2024/01/15 04:14:52;;;;;;;0.97;0.80;;;-0.60;99.90;;;;;;5074040;28;20452;-72
2024/01/15 04:17:21;;;;;;;0.50;0.10;;;-0.60;99.90;;;;;;5073778;28;20472;-72
2024/01/15 04:19:49;;;;;;;2.50;2.30;;;-0.50;99.90;;;;;;5071112;28;20548;-72
2024/01/15 04:22:17;;;;;;;4.00;2.10;;;-0.40;99.90;;;;;;5076693;28;20503;-72
2024/01/15 04:24:46;;;;;;;2.10;1.90;;;-0.30;99.90;;;;;;5076557;28;20477;-72
2024/01/15 04:27:14;;;;;;;8.33;6.03;;;-0.40;99.90;;;;;;5073580;28;20461;-73
2024/01/15 04:29:44;;;;;;;1.07;1.03;;;-0.50;99.90;;;;;;5071343;28;20477;-73
2024/01/15 04:32:12;;;;;;;6.40;3.37;;;-0.50;99.90;;;;;;5071190;28;20452;-74
2024/01/15 04:34:40;;;;;;;4.93;0.80;;;-0.50;99.90;;;;;;5071662;28;20539;-72
2024/01/15 04:37:08;;;;;;;0.50;0.20;;;-0.40;99.90;;;;;;5076825;28;20517;-72
2024/01/15 04:39:36;;;;;;;0.87;0.77;;;-0.40;99.90;;;;;;5079658;28;20528;-72
2024/01/15 04:42:05;;;;;;;5.33;4.93;;;-0.30;99.90;;;;;;5090888;28;20440;-72
2024/01/15 04:44:33;;;;;;;0.50;0.10;;;-0.40;99.90;;;;;;5093692;28;20928;-73
2024/01/15 04:47:01;;;;;;;2.90;2.70;;;-0.40;99.90;;;;;;5096012;28;20513;-72
2024/01/15 04:49:29;;;;;;;1.03;0.90;;;-0.40;99.90;;;;;;5092306;28;20568;-72
2024/01/15 04:51:57;;;;;;;3.97;3.60;;;-0.40;99.90;;;;;;5075268;28;20921;-72
2024/01/15 04:54:25;;;;;;;4.17;3.07;;;-0.40;99.90;;;;;;5090601;28;20521;-72
2024/01/15 04:56:53;;;;;;;0.67;0.20;;;-0.50;99.90;;;;;;5088645;28;21038;-72
2024/01/15 04:59:22;;;;;;;0.50;0.10;;;-0.50;99.90;;;;;;5078055;28;20476;-72
2024/01/15 05:01:50;;;;;;;6.10;2.43;;;-0.50;99.90;;;;;;5080211;28;20464;-72
2024/01/15 05:04:18;;;;;;;4.83;2.93;;;-0.50;99.90;;;;;;5094056;28;20535;-72
2024/01/15 05:06:46;;;;;;;1.60;1.00;;;-0.50;99.90;;;;;;5080135;28;20487;-71
2024/01/15 05:09:14;;;;;;;2.50;1.73;;;-0.50;99.90;;;;;;5074116;28;20971;-72
2024/01/15 05:11:42;;;;;;;2.10;1.30;;;-0.50;99.90;;;;;;5085214;28;20443;-72
2024/01/15 05:14:10;;;;;;;14.47;4.53;;;-0.50;99.90;;;;;;5093535;28;20504;-72
2024/01/15 05:16:40;;;;;;;0.53;0.53;;;-0.40;99.90;;;;;;5094864;28;21078;-72
2024/01/15 05:19:09;;;;;;;3.00;2.73;;;-0.40;99.90;;;;;;5094051;28;20460;-72
2024/01/15 05:21:37;;;;;;;3.70;3.40;;;-0.30;99.90;;;;;;5094899;28;20444;-73
2024/01/15 05:24:05;;;;;;;0.93;0.60;;;-0.30;99.90;;;;;;5094420;28;20501;-72
2024/01/15 05:26:33;;;;;;;0.50;0.20;;;-0.40;99.90;;;;;;5086506;28;20464;-72
2024/01/15 05:29:01;;;;;;;1.27;1.03;;;-0.40;99.90;;;;;;5093706;28;20444;-72
2024/01/15 05:31:29;;;;;;;1.57;1.47;;;-0.40;99.90;;;;;;5084321;28;20886;-72
2024/01/15 05:33:58;;;;;;;3.47;2.50;;;-0.40;99.90;;;;;;5088026;28;20440;-72
2024/01/15 05:36:25;;;;;;;2.57;1.17;;;-0.30;99.90;;;;;;5074431;28;20729;-73
2024/01/15 05:38:53;;;;;;;6.57;3.00;;;-0.40;99.90;;;;;;5085162;28;20579;-72
2024/01/15 05:41:21;;;;;;;8.17;5.93;;;;;;;;;;5088064;28;20861;-71
2024/01/15 05:43:49;;;;;;;0.50;0.10;;;-0.30;99.90;;;;;;5082224;28;20817;-73
2024/01/15 05:46:17;;;;;;;1.53;1.30;;;-0.20;99.90;;;;;;5083130;28;20456;-73
2024/01/15 05:48:45;;;;;;;4.67;2.73;;;-0.20;99.90;;;;;;5085409;28;20460;-72
2024/01/15 05:51:14;;;;;;;2.13;1.33;;;-0.20;99.90;;;;;;5086772;28;20504;-72
2024/01/15 05:53:44;;;;;;;4.40;4.00;;;-0.30;99.90;;;;;;5084276;28;20921;-72
2024/01/15 05:56:12;;;;;;;1.37;1.27;;;-0.30;99.90;;;;;;5083185;28;20480;-72
2024/01/15 05:58:39;;;;;;;5.90;1.87;;;-0.30;99.90;;;;;;5090182;28;20513;-73
2024/01/15 06:01:07;;;;;;;4.00;2.97;;;-0.30;99.90;;;;;;5090423;28;20464;-73
2024/01/15 06:03:35;;;;;;;5.67;3.33;;;-0.40;99.90;;;;;;5084617;28;20432;-71
2024/01/15 06:06:03;;;;;;;1.03;0.93;;;-0.40;99.90;;;;;;5082896;28;20457;-73
2024/01/15 06:08:33;;;;;;;1.40;1.17;;;-0.40;99.90;;;;;;5083143;28;20436;-73
2024/01/15 06:11:01;;;;;;;8.57;2.07;;;-0.40;99.90;;;;;;5083263;28;20860;-72
2024/01/15 06:13:29;;;;;;;1.73;1.07;;;-0.30;99.90;;;;;;5082807;28;20467;-73
2024/01/15 06:15:57;;;;;;;9.40;2.37;;;-0.30;99.90;;;;;;5083694;28;20460;-73
2024/01/15 06:18:25;;;;;;;1.83;1.37;;;-0.30;99.90;;;;;;5087332;28;20460;-73
2024/01/15 06:20:53;;;;;;;1.23;1.03;;;-0.40;99.90;;;;;;5076116;28;20496;-73
2024/01/15 06:23:21;;;;;;;2.40;2.30;;;-0.30;99.90;;;;;;5077439;28;20593;-73
2024/01/15 06:25:50;;;;;;;1.50;1.40;;;-0.30;99.90;;;;;;5097641;28;20448;-72
2024/01/15 06:28:18;;;;;;;2.27;2.07;;;-0.30;99.90;;;;;;5084853;28;20457;-73
2024/01/15 06:30:46;;;;;;;5.33;4.70;;;-0.30;99.90;;;;;;5073825;28;20531;-73
2024/01/15 06:33:14;;;;;;;7.80;2.40;;;-0.40;99.90;;;;;;5072763;28;20477;-73
2024/01/15 06:35:42;;;;;;;3.23;2.93;;;-0.40;99.90;;;;;;5078806;28;20456;-73
2024/01/15 06:38:10;;;;;;;3.60;2.67;;;-0.40;99.90;;;;;;5093206;28;20444;-73
2024/01/15 06:40:39;;;;;;;1.17;0.87;;;-0.40;99.90;;;;;;5094375;28;20516;-73
2024/01/15 06:43:08;;;;;;;14.00;3.73;;;-0.30;99.90;;;;;;5095628;28;20488;-73
2024/01/15 06:45:36;;;;;;;5.30;1.40;;;1.60;99.90;;;;;;5082934;28;20805;-72
2024/01/15 06:48:05;;;;;;;0.60;0.43;;;-0.30;99.90;;;;;;5072660;28;20429;-73
2024/01/15 06:50:33;;;;;;;3.17;2.93;;;-0.30;99.90;;;;;;5073324;28;20542;-72
2024/01/15 06:53:01;;;;;;;6.43;4.07;;;-0.30;99.90;;;;;;5072593;28;20551;-72
2024/01/15 06:55:29;;;;;;;1.43;1.33;;;-0.30;99.90;;;;;;5072336;28;20445;-73
2024/01/15 06:57:57;;;;;;;1.57;1.47;;;-0.40;99.90;;;;;;5071347;28;20556;-73
2024/01/15 07:00:27;;;;;;;37.70;30.33;;;-0.30;99.90;;;;;;5079400;28;20864;-73
2024/01/15 07:02:55;;;;;;;2.90;2.73;;;-0.30;99.90;;;;;;5086430;28;20460;-73
2024/01/15 07:05:24;;;;;;;2.57;2.47;;;-0.30;99.90;;;;;;5095537;28;20531;-73
2024/01/15 07:07:52;;;;;;;0.50;0.10;;;-0.20;99.90;;;;;;5093438;28;20518;-73
2024/01/15 07:10:20;;;;;;;0.50;0.30;;;-0.10;99.90;;;;;;5087444;28;20478;-74
2024/01/15 07:12:48;;;;;;;4.40;2.77;;;0.00;99.90;;;;;;5089312;28;20476;-73
2024/01/15 07:15:16;;;;;;;3.43;1.60;;;0.10;99.90;;;;;;5086839;28;20441;-73
2024/01/15 07:17:45;;;;;;;2.63;2.43;;;0.10;99.90;;;;;;5094834;28;20464;-73
2024/01/15 07:20:13;;;;;;;0.50;0.20;;;0.10;99.90;;;;;;5089398;28;20555;-73
2024/01/15 07:22:41;;;;;;;0.50;0.10;;;0.10;99.90;;;;;;5075582;28;20473;-72
2024/01/15 07:25:09;;;;;;;1.13;1.03;;;0.10;99.90;;;;;;5076192;28;20441;-73
2024/01/15 07:27:37;;;;;;;1.87;0.97;;;0.20;99.90;;;;;;5076622;28;20492;-72
2024/01/15 07:30:06;;;;;;;0.50;0.10;;;0.20;99.90;;;;;;5083673;28;20433;-73
2024/01/15 07:32:34;;;;;;;0.50;0.10;;;0.20;99.90;;;;;;5088604;28;20912;-73
2024/01/15 07:35:05;;;;;;;3.63;2.63;;;0.20;99.90;;;;;;5083775;28;20472;-73
2024/01/15 07:37:33;;;;;;;3.47;3.10;;;0.10;99.90;;;;;;5086986;28;20568;-73
2024/01/15 07:40:01;;;;;;;2.53;1.20;;;0.10;99.90;;;;;;5084821;28;20849;-72
2024/01/15 07:42:29;;;;;;;32.00;1.80;;;0.10;99.90;;;;;;5084525;28;20522;-73
2024/01/15 07:44:57;;;;;;;10.60;9.93;;;0.00;99.90;;;;;;5089577;28;20444;-72
2024/01/15 07:47:25;;;;;;;0.50;0.10;;;0.10;99.90;;;;;;5091830;28;20465;-72
2024/01/15 07:49:54;;;;;;;0.60;0.30;;;0.10;99.90;;;;;;5091674;28;20471;-72
2024/01/15 07:52:23;;;;;;;0.60;0.60;;;0.10;99.90;;;;;;5089683;28;20853;-72
2024/01/15 07:54:51;;;;;;;12.10;4.00;;;0.20;99.90;;;;;;5091483;28;20524;-72
2024/01/15 07:57:19;;;;;;;0.60;0.50;;;0.10;99.90;;;;;;5091748;28;20550;-72
2024/01/15 07:59:47;;;;;;;0.50;0.20;;;0.10;99.90;;;;;;5092541;28;20444;-72
2024/01/15 08:02:15;;;;;;;4.40;1.47;;;0.20;99.90;;;;;;5093327;28;20444;-73
2024/01/15 08:04:44;;;;;;;0.50;0.10;;;0.30;99.90;;;;;;5086565;28;20450;-73
2024/01/15 08:07:13;;;;;;;1.10;1.03;;;0.30;99.90;;;;;;5093807;28;20521;-73
2024/01/15 08:09:42;;;;;;;0.60;0.30;;;0.30;99.90;;;;;;5093290;28;20468;-72
2024/01/15 08:12:11;;;;;;;8.60;3.00;;;0.30;99.90;;;;;;5092132;28;20545;-73
2024/01/15 08:14:39;;;;;;;2.10;2.00;;;0.40;99.90;;;;;;5091673;28;20443;-71
2024/01/15 08:17:07;;;;;;;2.03;1.80;;;0.30;99.90;;;;;;5093403;28;20547;-72
2024/01/15 08:19:35;;;;;;;5.50;2.33;;;0.30;99.90;;;;;;5094911;28;20468;-72
2024/01/15 08:22:03;;;;;;;9.60;4.43;;;0.30;99.90;;;;;;5096549;28;20436;-73
2024/01/15 08:24:31;;;;;;;4.60;1.87;;;0.20;99.90;;;;;;5093391;28;20530;-72
2024/01/15 08:27:00;;;;;;;1.73;1.50;;;0.20;99.90;;;;;;5085475;28;20747;-72
2024/01/15 08:29:28;;;;;;;7.60;2.10;;;0.20;99.90;;;;;;5070961;28;20520;-73
2024/01/15 08:31:56;;;;;;;0.50;0.10;;;0.30;99.90;;;;;;5071183;28;21062;-73
2024/01/15 08:34:24;;;;;;;1.23;1.13;;;0.30;99.90;;;;;;5071295;28;20476;-72
2024/01/15 08:36:55;;;;;;;2.20;2.00;;;0.40;99.90;;;;;;5088825;28;20614;-73
2024/01/15 08:39:23;;;;;;;1.27;1.27;;;0.40;99.90;;;;;;5089449;28;20484;-73
2024/01/15 08:41:51;;;;;;;1.43;0.63;;;0.40;99.90;;;;;;5091564;28;20783;-72
2024/01/15 08:44:20;;;;;;;1.57;0.83;;;0.40;99.90;;;;;;5082073;28;20493;-72
2024/01/15 08:46:48;;;;;;;1.67;1.57;;;0.40;99.90;;;;;;5071222;28;20500;-73
2024/01/15 08:49:15;;;;;;;2.50;2.30;;;0.40;99.90;;;;;;5071342;28;20476;-73
2024/01/15 08:51:43;;;;;;;0.50;0.27;;;0.50;99.90;;;;;;5071362;28;20505;-73
2024/01/15 08:54:11;;;;;;;0.63;0.60;;;0.50;99.90;;;;;;5071304;28;20964;-73
2024/01/15 08:56:40;;;;;;;0.53;0.23;;;0.50;99.90;;;;;;5081617;28;20493;-72
2024/01/15 08:59:08;;;;;;;2.33;2.10;;;0.50;99.90;;;;;;5076301;28;20449;-73
2024/01/15 09:01:39;;;;;;;3.27;0.97;;;0.50;99.90;;;;;;5076078;28;20449;-73
2024/01/15 09:04:07;;;;;;;5.43;2.93;;;0.50;99.90;;;;;;5071454;28;20444;-74
2024/01/15 09:06:35;;;;;;;4.73;2.97;;;0.50;99.90;;;;;;5091335;28;20478;-74
2024/01/15 09:09:04;;;;;;;0.70;0.40;;;0.50;99.90;;;;;;5090944;28;20447;-74
2024/01/15 09:11:32;;;;;;;0.60;0.40;;;0.50;99.90;;;;;;5085415;28;20931;-74
2024/01/15 09:14:00;;;;;;;0.50;0.10;;;0.60;99.90;;;;;;5076145;28;20544;-74
2024/01/15 09:16:28;;;;;;;1.83;0.87;;;0.70;99.90;;;;;;5085791;28;20456;-73
2024/01/15 09:18:58;;;;;;;5.57;2.40;;;0.70;99.90;;;;;;5084809;28;21040;-73
2024/01/15 09:21:26;;;;;;;2.77;2.43;;;0.80;99.90;;;;;;5089156;28;20455;-73
2024/01/15 09:23:54;;;;;;;5.67;1.90;;;0.80;99.90;;;;;;5089628;28;20882;-73
2024/01/15 09:26:22;;;;;;;4.60;2.20;;;0.80;99.90;;;;;;5090213;28;20549;-73
2024/01/15 09:28:49;;;;;;;0.57;0.30;;;0.80;99.90;;;;;;5092367;28;20567;-73
2024/01/15 09:31:19;;;;;;;0.83;0.83;;;0.80;99.90;;;;;;5094018;28;20864;-73
2024/01/15 09:33:48;;;;;;;3.63;2.27;;;0.80;99.90;;;;;;5093879;28;20448;-73
2024/01/15 09:36:17;;;;;;;1.80;1.70;;;0.90;99.90;;;;;;5093127;28;20502;-73
2024/01/15 09:38:45;;;;;;;1.47;1.37;;;1.00;99.90;;;;;;5090778;28;20440;-73
2024/01/15 09:41:13;;;;;;;0.50;0.20;;;1.10;99.90;;;;;;5073998;28;20446;-73
2024/01/15 09:43:41;;;;;;;1.80;1.13;;;1.10;99.90;;;;;;5084549;28;20440;-72
2024/01/15 09:46:09;;;;;;;7.73;3.03;;;1.20;99.90;;;;;;5093154;28;20520;-74
2024/01/15 09:48:38;;;;;;;3.80;2.50;;;1.20;99.90;;;;;;5093425;28;20463;-73
2024/01/15 09:51:07;;;;;;;1.67;1.27;;;1.30;99.90;;;;;;5092458;28;20456;-73
2024/01/15 09:53:38;;;;;;;0.60;0.53;;;1.40;99.90;;;;;;5093218;28;20452;-73
2024/01/15 09:56:06;;;;;;;3.70;1.30;;;1.50;99.90;;;;;;5093507;28;21051;-73
2024/01/15 09:58:36;;;;;;;5.70;2.93;;;1.50;99.90;;;;;;5093376;28;20503;-74
2024/01/15 10:01:04;;;;;;;11.33;6.10;;;1.60;99.90;;;;;;5093681;28;20445;-73
2024/01/15 10:03:35;;;;;;;2.27;1.83;;;1.50;99.90;;;;;;5093563;28;20448;-73
2024/01/15 10:06:05;;;;;;;8.90;2.00;;;1.50;99.90;;;;;;5091926;28;20476;-73
2024/01/15 10:08:33;;;;;;;0.50;0.30;;;1.60;99.90;;;;;;5092567;28;20531;-73
2024/01/15 10:11:04;;;;;;;3.37;2.30;;;1.70;99.90;;;;;;5093932;28;20939;-73
2024/01/15 10:13:32;;;;;;;0.87;0.73;;;1.70;99.90;;;;;;5092848;28;20491;-73
2024/01/15 10:16:03;;;;;;;0.50;0.17;;;1.70;99.90;;;;;;5092676;28;21043;-73
2024/01/15 10:18:31;;;;;;;1.23;1.13;;;1.70;99.90;;;;;;5092683;28;20448;-73
2024/01/15 10:20:59;;;;;;;2.40;1.47;;;1.80;99.90;;;;;;5094829;28;20940;-73
2024/01/15 10:23:27;;;;;;;1.50;1.40;;;1.80;99.90;;;;;;5092615;28;20452;-73
2024/01/15 10:25:57;;;;;;;3.60;1.33;;;1.70;99.90;;;;;;5094591;28;20523;-72
2024/01/15 10:28:30;;;;;;;1.00;0.73;;;1.60;99.90;;;;;;5095373;28;20483;-74
2024/01/15 10:31:00;;;;;;;3.70;2.47;;;1.70;99.90;;;;;;5099066;28;20478;-73
2024/01/15 10:33:28;;;;;;;1.83;1.70;;;1.70;99.90;;;;;;5098402;28;20500;-72
2024/01/15 10:35:57;;;;;;;9.23;3.80;;;1.60;99.90;;;;;;5088852;28;20468;-71
2024/01/15 10:38:25;;;;;;;3.00;1.53;;;1.50;99.90;;;;;;5089415;28;20484;-73
2024/01/15 10:40:54;;;;;;;2.63;1.90;;;1.50;99.90;;;;;;5093475;28;20498;-73
2024/01/15 10:43:23;;;;;;;0.97;0.73;;;1.40;99.90;;;;;;5097044;28;20524;-73
2024/01/15 10:45:57;;;;;;;7.90;3.03;;;1.50;99.90;;;;;;5085567;28;20456;-73
2024/01/15 10:48:28;;;;;;;5.23;4.23;;;1.50;99.90;;;;;;5095691;28;20503;-72
2024/01/15 10:50:57;;;;;;;2.60;1.50;;;1.60;99.90;;;;;;5104870;28;20444;-73
2024/01/15 10:53:25;;;;;;;1.37;1.10;;;1.60;99.90;;;;;;5104315;28;20508;-73
2024/01/15 10:55:54;;;;;;;2.10;1.70;;;1.50;99.90;;;;;;5080453;28;20527;-73
2024/01/15 10:58:23;;;;;;;4.33;2.30;;;1.50;99.90;;;;;;5094169;28;20531;-73
2024/01/15 11:00:51;;;;;;;1.03;0.57;;;1.60;99.90;;;;;;5094992;28;20436;-73
2024/01/15 11:03:21;;;;;;;3.27;1.70;;;1.70;99.90;;;;;;5089703;28;20445;-72
2024/01/15 11:05:49;;;;;;;0.60;0.60;;;1.70;99.90;;;;;;5086528;28;20452;-73
2024/01/15 11:08:18;;;;;;;0.50;0.30;;;1.70;99.90;;;;;;5090990;28;20463;-73
2024/01/15 11:10:49;;;;;;;4.13;3.87;;;1.90;99.90;;;;;;5091671;28;20452;-73
2024/01/15 11:13:21;;;;;;;2.10;1.10;;;1.90;99.90;;;;;;5090611;28;20476;-74
2024/01/15 11:15:57;;;;;;;2.53;2.43;;;2.10;99.90;;;;;;5076887;28;20436;-73
2024/01/15 11:18:27;;;;;;;0.90;0.70;;;2.10;99.90;;;;;;5092022;28;20444;-73
2024/01/15 11:21:24;;;;;;;3.67;2.93;;;2.30;99.90;;;;;;5084148;28;20513;-73
2024/01/15 11:23:56;;;;;;;1.17;1.03;;;2.20;99.90;;;;;;5077106;28;20695;-73
2024/01/15 11:26:35;;;;;;;0.60;0.53;;;2.20;99.90;;;;;;5081888;28;20460;-73
2024/01/15 11:29:05;;;;;;;4.00;2.73;;;2.20;99.90;;;;;;5083070;28;20444;-73
2024/01/15 11:32:04;;;;;;;0.50;0.10;;;2.30;99.90;;;;;;5090826;28;20452;-73
2024/01/15 11:34:58;;;;;;;1.87;1.77;;;2.20;99.90;;;;;;5082498;28;20892;-73
2024/01/15 11:37:29;;;;;;;1.13;0.47;;;2.20;99.90;;;;;;5070684;28;20497;-72
2024/01/15 11:40:01;;;;;;;0.50;0.20;;;2.30;99.90;;;;;;5074570;28;20802;-74
2024/01/15 11:42:30;;;;;;;1.03;0.90;;;2.30;99.90;;;;;;5092084;28;20468;-74
2024/01/15 11:44:58;;;;;;;1.17;1.07;;;2.40;99.90;;;;;;5086206;28;20432;-74
2024/01/15 11:48:05;;;;;;;1.27;0.83;;;2.40;99.90;;;;;;5092377;28;20464;-73
2024/01/15 11:50:35;;;;;;;3.73;3.10;;;2.50;99.90;;;;;;5074923;28;20452;-74
2024/01/15 11:53:04;;;;;;;3.43;0.83;;;2.50;99.90;;;;;;5090219;28;20515;-73
2024/01/15 11:55:36;;;;;;;2.87;1.43;;;2.50;99.90;;;;;;5092420;28;20499;-74
2024/01/15 11:58:08;;;;;;;0.50;0.10;;;2.50;99.90;;;;;;5088653;28;20444;-74
2024/01/15 12:00:41;;;;;;;1.90;1.80;;;2.50;99.90;;;;;;5089252;28;20531;-73
2024/01/15 12:03:10;;;;;;;0.60;0.40;;;2.60;99.90;;;;;;5091730;28;20523;-73
2024/01/15 12:05:41;;;;;;;2.63;2.20;;;2.50;99.90;;;;;;5092373;28;20437;-73
2024/01/15 12:08:11;;;;;;;0.50;0.10;;;2.50;99.90;;;;;;5090069;28;20452;-74
2024/01/15 12:10:40;;;;;;;0.50;0.20;;;2.50;99.90;;;;;;5082137;28;20553;-73
2024/01/15 12:13:12;;;;;;;1.80;1.70;;;2.50;99.90;;;;;;5080633;28;20561;-74
2024/01/15 12:15:41;;;;;;;0.93;0.83;;;2.40;99.90;;;;;;5086728;28;20501;-74
2024/01/15 12:18:10;;;;;;;11.53;4.53;;;2.40;99.90;;;;;;5072178;28;20460;-73
2024/01/15 12:20:43;;;;;;;1.30;0.80;;;2.40;99.90;;;;;;5076966;28;20572;-73
2024/01/15 12:23:11;;;;;;;2.47;2.10;;;-0.30;99.90;;;;;;5080269;28;20437;-72
2024/01/15 12:25:40;;;;;;;2.90;1.97;;;2.30;99.90;;;;;;5083857;28;20457;-74
2024/01/15 12:28:08;;;;;;;2.53;1.47;;;2.30;99.90;;;;;;5088321;28;20464;-73
2024/01/15 12:30:37;;;;;;;8.70;4.03;;;2.30;99.90;;;;;;5075600;28;20941;-73
2024/01/15 12:33:06;;;;;;;0.60;0.30;;;2.40;99.90;;;;;;5092928;28;20554;-73
2024/01/15 12:35:35;;;;;;;2.10;1.70;;;2.30;99.90;;;;;;5092772;28;20436;-74
2024/01/15 12:38:05;;;;;;;1.53;1.00;;;2.30;99.90;;;;;;5079397;28;20953;-73
2024/01/15 12:40:35;;;;;;;6.23;2.90;;;;;;;;;;5089777;28;20440;-73
2024/01/15 12:43:06;;;;;;;5.03;3.37;;;2.20;99.90;;;;;;5080415;28;20544;-73
2024/01/15 12:45:37;;;;;;;1.53;1.43;;;2.20;99.90;;;;;;5081481;28;20505;-74
2024/01/15 12:48:06;;;;;;;4.40;2.50;;;2.30;99.90;;;;;;5086004;28;20456;-73
2024/01/15 12:50:35;;;;;;;6.63;4.07;;;2.30;99.90;;;;;;5071383;28;20752;-74
2024/01/15 12:53:05;;;;;;;5.20;3.40;;;2.40;99.90;;;;;;5072008;28;20877;-74
2024/01/15 12:55:34;;;;;;;3.40;2.63;;;2.40;99.90;;;;;;5088935;28;20448;-74
2024/01/15 12:58:02;;;;;;;3.73;1.83;;;;;;;;;;5088977;28;20537;-74
2024/01/15 13:00:30;;;;;;;8.97;2.10;;;2.40;99.90;;;;;;5072095;28;20494;-73
2024/01/15 13:03:00;;;;;;;1.90;1.80;;;2.40;99.90;;;;;;5075520;28;21010;-73